Latest Coastal Weather Observations for Swanbourne

IDW60701

Issued at 5:35 pm WST Wednesday 17 September 2014 (issued every 10 minutes, with the page automatically refreshed every 10 minutes)

About coastal observations | Map of coastal stations | Coastal observations for WA | Marine services | Other Formats
Station Details ID: 009215 Name: SWANBOURNE Lat: -31.96 Lon: 115.76 Height: 40.96 m
Data from the previous 72 hours. | See also: Recent months at Swanbourne
Date/Time
WST
Temp

°C
Wind Pressure Rain
since 9am
mm
Weather Cloud Vis
km
Sea
Height
m
Swell
Dir
 
Speed
knots
Gust
knots
hPa Trend Height
m
Period
s
Dir
17/05:30pm 19.2 SSW 13 20 - - 0.0 - - - - - - -
17/05:00pm 19.9 SSW 12 18 - - 0.0 - - - - - - -
17/04:30pm 21.2 SSW 11 18 - - 0.0 - - - - - - -
17/04:00pm 21.9 SSW 12 17 - - 0.0 - - - - - - -
17/03:30pm 22.1 SSW 12 17 - - 0.0 - - - - - - -
17/03:00pm 21.8 SSW 11 18 - - 0.0 - - - - - - -
17/02:30pm 22.8 SSW 12 18 - - 0.0 - - - - - - -
17/02:00pm 22.2 SSW 14 20 - - 0.0 - - - - - - -
17/01:30pm 22.4 SSW 14 23 - - 0.0 - - - - - - -
17/01:00pm 22.2 SSW 14 20 - - 0.0 - - - - - - -
17/12:30pm 22.1 SSW 14 20 - - 0.0 - - - - - - -
17/12:00pm 22.9 SSW 13 18 - - 0.0 - - - - - - -
17/11:30am 22.8 SSW 10 14 - - 0.0 - - - - - - -
17/11:00am 24.4 SSE 6 9 - - 0.0 - - - - - - -
17/10:30am 23.1 S 5 9 - - 0.0 - - - - - - -
17/10:00am 21.1 SSW 6 10 - - 0.0 - - - - - - -
17/09:30am 20.0 SSE 5 8 - - 0.0 - - - - - - -
17/09:00am 18.9 SSE 4 5 - - 0.0 - - - - - - -
17/08:30am 17.6 SE 4 6 - - 0.0 - - - - - - -
17/08:00am 15.8 SSE 2 4 - - 0.0 - - - - - - -
17/07:30am 14.3 E 5 7 - - 0.0 - - - - - - -
17/07:00am 12.0 E 2 4 - - 0.0 - - - - - - -
17/06:30am 11.6 S 3 3 - - 0.0 - - - - - - -
17/06:00am 11.5 SE 2 4 - - 0.0 - - - - - - -
17/05:30am 11.4 ESE 3 5 - - 0.0 - - - - - - -
17/05:00am 11.7 E 4 5 - - 0.0 - - - - - - -
17/04:30am 11.8 ESE 4 5 - - 0.0 - - - - - - -
17/04:00am 12.1 SE 2 4 - - 0.0 - - - - - - -
17/03:30am 12.5 ESE 3 5 - - 0.0 - - - - - - -
17/03:00am 13.0 E 4 7 - - 0.0 - - - - - - -
17/02:30am 13.4 E 4 5 - - 0.0 - - - - - - -
17/02:00am 14.4 E 2 4 - - 0.0 - - - - - - -
17/01:30am 15.3 ESE 7 10 - - 0.0 - - - - - - -
17/01:00am 15.8 ESE 9 11 - - 0.0 - - - - - - -
17/12:30am 15.3 ESE 8 11 - - 0.0 - - - - - - -
17/12:00am 15.3 ESE 6 8 - - 0.0 - - - - - - -
 
Date/Time
WST
Temp

°C
Wind Pressure Rain
since 9am
mm
Weather Cloud Vis
km
Sea
Height
m
Swell
Dir
 
Speed
knots
Gust
knots
hPa Trend Height
m
Period
s
Dir
16/11:30pm 16.0 ESE 6 9 - - 0.0 - - - - - - -
16/11:00pm 16.9 ESE 7 10 - - 0.0 - - - - - - -
16/10:30pm 17.2 ESE 7 10 - - 0.0 - - - - - - -
16/10:00pm 17.1 ESE 7 10 - - 0.0 - - - - - - -
16/09:30pm 16.9 ESE 6 8 - - 0.0 - - - - - - -
16/09:00pm 17.1 ESE 6 8 - - 0.0 - - - - - - -
16/08:30pm 17.4 ESE 5 6 - - 0.0 - - - - - - -
16/08:00pm 17.8 ESE 5 7 - - 0.0 - - - - - - -
16/07:30pm 17.5 ESE 6 7 - - 0.0 - - - - - - -
16/07:00pm 16.8 S 4 4 - - 0.0 - - - - - - -
16/06:30pm 17.5 S 4 5 - - 0.0 - - - - - - -
16/06:00pm 18.5 S 4 5 - - 0.0 - - - - - - -
16/05:30pm 19.5 SSW 6 8 - - 0.0 - - - - - - -
16/05:00pm 20.2 SSW 8 11 - - 0.0 - - - - - - -
16/04:30pm 20.5 SSW 11 15 - - 0.0 - - - - - - -
16/04:00pm 21.3 SSW 10 14 - - 0.0 - - - - - - -
16/03:30pm 22.0 SSW 11 15 - - 0.0 - - - - - - -
16/03:00pm 24.3 SSW 4 14 - - 0.0 - - - - - - -
16/02:30pm 25.2 ESE 5 10 - - 0.0 - - - - - - -
16/02:00pm 24.8 SE 6 10 - - 0.0 - - - - - - -
16/01:30pm 24.4 SE 7 12 - - 0.0 - - - - - - -
16/01:00pm 24.2 ESE 7 13 - - 0.0 - - - - - - -
16/12:30pm 23.6 ESE 7 11 - - 0.0 - - - - - - -
16/12:00pm 22.9 SE 8 13 - - 0.0 - - - - - - -
16/11:30am 22.1 ESE 7 12 - - 0.0 - - - - - - -
16/11:00am 22.1 ESE 7 13 - - 0.0 - - - - - - -
16/10:30am 20.8 E 8 13 - - 0.0 - - - - - - -
16/10:00am 19.8 ESE 7 11 - - 0.0 - - - - - - -
16/09:30am 18.6 ESE 9 13 - - 0.0 - - - - - - -
16/09:00am 18.0 E 7 13 - - 0.0 - - - - - - -
16/08:30am 16.4 ESE 9 14 - - 0.0 - - - - - - -
16/08:00am 15.0 E 8 12 - - 0.0 - - - - - - -
16/07:30am 13.7 E 8 12 - - 0.0 - - - - - - -
16/07:00am 12.6 E 9 14 - - 0.0 - - - - - - -
16/06:30am 11.8 E 8 11 - - 0.0 - - - - - - -
16/06:00am 11.8 E 8 12 - - 0.0 - - - - - - -
16/05:30am 12.1 E 9 13 - - 0.0 - - - - - - -
16/05:00am 12.2 E 8 12 - - 0.0 - - - - - - -
16/04:30am 12.1 E 8 11 - - 0.0 - - - - - - -
16/04:00am 12.5 E 8 11 - - 0.0 - - - - - - -
16/03:30am 12.9 E 9 12 - - 0.0 - - - - - - -
16/03:00am 13.3 ESE 10 16 - - 0.0 - - - - - - -
16/02:30am 13.6 ESE 10 16 - - 0.0 - - - - - - -
16/02:00am 13.9 ESE 10 17 - - 0.0 - - - - - - -
16/01:30am 13.7 ESE 9 13 - - 0.0 - - - - - - -
16/01:00am 13.6 E 7 9 - - 0.0 - - - - - - -
16/12:30am 13.5 ESE 7 9 - - 0.0 - - - - - - -
16/12:00am 13.3 ESE 7 9 - - 0.0 - - - - - - -
 
Date/Time
WST
Temp

°C
Wind Pressure Rain
since 9am
mm
Weather Cloud Vis
km
Sea
Height
m
Swell
Dir
 
Speed
knots
Gust
knots
hPa Trend Height
m
Period
s
Dir
15/11:30pm 13.2 SE 5 7 - - 0.0 - - - - - - -
15/11:00pm 13.3 SE 5 8 - - 0.0 - - - - - - -
15/10:30pm 13.9 SE 5 7 - - 0.0 - - - - - - -
15/10:00pm 14.3 SSE 6 11 - - 0.0 - - - - - - -
15/09:30pm 14.8 SSE 8 12 - - 0.0 - - - - - - -
15/09:00pm 15.1 SSE 6 11 - - 0.0 - - - - - - -
15/08:30pm 15.2 SSE 6 8 - - 0.0 - - - - - - -
15/08:00pm 15.4 S 8 12 - - 0.0 - - - - - - -
15/07:30pm 15.6 S 7 12 - - 0.0 - - - - - - -
15/07:00pm 16.0 S 8 14 - - 0.0 - - - - - - -
15/06:30pm 16.4 S 11 16 - - 0.0 - - - - - - -
15/06:00pm 16.8 S 12 20 - - 0.0 - - - - - - -
15/05:30pm 17.7 SSW 11 16 - - 0.0 - - - - - - -
15/05:00pm 18.4 SSW 12 16 - - 0.0 - - - - - - -
15/04:30pm 18.8 SSW 12 19 - - 0.0 - - - - - - -
15/04:00pm 19.3 SSW 12 17 - - 0.0 - - - - - - -
15/03:30pm 19.6 SW 11 16 - - 0.0 - - - - - - -
15/03:00pm 19.4 SSW 12 15 - - 0.0 - - - - - - -
15/02:30pm 19.5 SW 12 17 - - 0.0 - - - - - - -
15/02:00pm 20.5 SSW 10 16 - - 0.0 - - - - - - -
15/01:30pm 19.9 SW 10 15 - - 0.0 - - - - - - -
15/01:00pm 19.8 SW 11 15 - - 0.0 - - - - - - -
15/12:30pm 19.7 SW 9 13 - - 0.0 - - - - - - -
15/12:00pm 21.2 E 3 7 - - 0.0 - - - - - - -
15/11:30am 21.4 SE 4 9 - - 0.0 - - - - - - -
15/11:00am 21.1 SE 5 10 - - 0.0 - - - - - - -
15/10:30am 20.2 SE 6 9 - - 0.0 - - - - - - -
15/10:00am 19.5 ESE 6 10 - - 0.0 - - - - - - -
15/09:30am 18.6 E 6 11 - - 0.0 - - - - - - -
15/09:00am 16.9 ESE 7 10 - - 0.0 - - - - - - -
15/08:30am 15.1 E 10 14 - - 0.0 - - - - - - -
15/08:00am 13.6 E 10 14 - - 0.0 - - - - - - -
15/07:30am 12.5 E 8 12 - - 0.0 - - - - - - -
15/07:00am 11.8 E 7 10 - - 0.0 - - - - - - -
15/06:30am 11.7 ESE 6 10 - - 0.0 - - - - - - -
15/06:00am 12.4 SE 6 9 - - 0.0 - - - - - - -
15/05:30am 12.5 SE 5 7 - - 0.0 - - - - - - -
15/05:00am 12.6 SE 4 5 - - 0.0 - - - - - - -
15/04:30am 12.9 SE 4 5 - - 0.0 - - - - - - -
15/04:00am 13.1 SE 4 5 - - 0.0 - - - - - - -
15/03:30am 13.1 SSE 4 5 - - 0.0 - - - - - - -
15/03:00am 13.3 SSE 4 6 - - 0.0 - - - - - - -
15/02:30am 13.4 SE 4 6 - - 0.0 - - - - - - -
15/02:00am 13.6 SE 5 7 - - 0.0 - - - - - - -
15/01:30am 13.5 SE 5 6 - - 0.0 - - - - - - -
15/01:00am 13.5 SE 5 7 - - 0.0 - - - - - - -
15/12:30am 13.5 ESE 4 5 - - 0.0 - - - - - - -
15/12:00am 13.7 ESE 5 6 - - 0.0 - - - - - - -
 
Date/Time
WST
Temp

°C
Wind Pressure Rain
since 9am
mm
Weather Cloud Vis
km
Sea
Height
m
Swell
Dir
 
Speed
knots
Gust
knots
hPa Trend Height
m
Period
s
Dir
14/11:30pm 13.7 SE 4 6 - - 0.0 - - - - - - -
14/11:00pm 14.1 SE 4 6 - - 0.0 - - - - - - -
14/10:30pm 14.3 SSE 4 6 - - 0.0 - - - - - - -
14/10:00pm 14.8 ESE 5 7 - - 0.0 - - - - - - -
14/09:30pm 15.2 SSE 5 6 - - 0.0 - - - - - - -
14/09:00pm 15.7 S 5 7 - - 0.0 - - - - - - -
14/08:30pm 16.1 S 5 8 - - 0.0 - - - - - - -
14/08:00pm 16.6 SSW 8 12 - - 0.0 - - - - - - -
14/07:30pm 16.3 SSW 7 11 - - 0.0 - - - - - - -
14/07:00pm 16.3 SSW 6 9 - - 0.0 - - - - - - -
14/06:30pm 16.5 S 5 10 - - 0.0 - - - - - - -
14/06:00pm 17.1 SSW 8 11 - - 0.0 - - - - - - -

Other Formats:

Comma delimited format used in spreadsheet applications
http://www.bom.gov.au/fwo/IDW60701/IDW60701.94614.axf

JavaScript Object Notation format (JSON) in row-major order
http://www.bom.gov.au/fwo/IDW60701/IDW60701.94614.json